Abingdon, Iowa
Current Conditions -  °F | °C
As of 7:15 AM on Tuesday 21 Oct 2014 (Local Time) from KFFL Reporting Station
NA  
Wind Chill: 35°   Ceiling: NA
Heat Index: 39°   Visibility: NA
Dew Point: 36°   Wind: 6mph
Humidity: 87%   Direction: 40°NE
Pressure: 30.13"   Gusts: NA
Location:  40.9883°N, 92.1215°W
Report Text: KFFL 211215Z AUTO 04005KT 04/02 A3013 RMK AO2
Loading
Personal Weather Stations






























Interactive Weather Map
Tropical Storm Tracking
New forecast layout! Learn more

10-Day Weather Forecast

Advertisements
Track Severe Weather on mobile